Time;durP1;ratioP1;P1;durP2;ratioP2;P2;SDS_P1;SDS_P2;PMS_P1;PMS_P2;Temp;Humidity;BMP_temperature;BMP_pressure;BME280_temperature;BME280_humidity;BME280_pressure;Samples;Min_cycle;Max_cycle;Signal;HPM_P1;HPM_P2
2023/03/08 00:00:42;;;;;;;10.20;6.75;;;1.20;99.90;;;;;;5053962;28;20497;-45
2023/03/08 00:03:13;;;;;;;11.50;6.53;;;1.20;99.90;;;;;;5061298;28;20029;-45
2023/03/08 00:05:38;;;;;;;12.60;7.13;;;1.20;99.90;;;;;;5051956;28;20528;-45
2023/03/08 00:08:04;;;;;;;12.85;7.18;;;1.20;99.90;;;;;;5062783;28;20108;-45
2023/03/08 00:10:30;;;;;;;16.30;8.18;;;1.20;99.90;;;;;;5058150;28;20074;-45
2023/03/08 00:12:56;;;;;;;15.18;8.23;;;1.30;99.90;;;;;;5053915;28;20150;-45
2023/03/08 00:15:21;;;;;;;12.93;7.53;;;1.20;99.90;;;;;;5064138;28;20470;-44
2023/03/08 00:17:47;;;;;;;14.13;8.95;;;1.30;99.90;;;;;;5051890;28;20016;-45
2023/03/08 00:20:13;;;;;;;13.18;8.20;;;1.30;99.90;;;;;;5061553;28;20029;-45
2023/03/08 00:22:40;;;;;;;13.85;7.45;;;1.30;99.90;;;;;;5058824;28;20044;-45
2023/03/08 00:25:07;;;;;;;12.57;7.82;;;1.30;99.90;;;;;;5053077;28;20013;-45
2023/03/08 00:27:33;;;;;;;12.35;7.30;;;1.30;99.90;;;;;;5064331;28;20013;-45
2023/03/08 00:29:59;;;;;;;14.90;7.85;;;1.30;99.90;;;;;;5053736;28;20321;-45
2023/03/08 00:32:25;;;;;;;11.27;7.50;;;1.30;99.90;;;;;;5058301;28;20104;-45
2023/03/08 00:34:52;;;;;;;12.65;7.80;;;1.30;99.90;;;;;;5048879;28;20372;-45
2023/03/08 00:37:17;;;;;;;13.10;7.85;;;1.30;99.90;;;;;;5048793;28;20033;-44
2023/03/08 00:39:43;;;;;;;14.65;9.20;;;1.30;99.90;;;;;;5067687;28;20499;-45
2023/03/08 00:42:08;;;;;;;16.00;9.13;;;1.20;99.90;;;;;;5061519;28;20025;-45
2023/03/08 00:44:35;;;;;;;18.02;9.15;;;1.20;99.90;;;;;;5058298;28;20070;-44
2023/03/08 00:47:00;;;;;;;13.57;9.45;;;1.20;99.90;;;;;;5053170;28;20033;-45
2023/03/08 00:49:26;;;;;;;19.60;9.38;;;1.20;99.90;;;;;;5065356;28;20024;-44
2023/03/08 00:51:52;;;;;;;22.60;10.43;;;1.30;99.90;;;;;;5068334;28;20202;-45
2023/03/08 00:54:17;;;;;;;15.07;9.60;;;1.20;99.90;;;;;;5063891;28;20090;-44
2023/03/08 00:56:42;;;;;;;16.20;9.38;;;1.30;99.90;;;;;;5049596;28;20267;-44
2023/03/08 00:59:08;;;;;;;16.02;8.98;;;1.20;99.90;;;;;;5068642;28;20028;-45
2023/03/08 01:01:33;;;;;;;18.58;9.77;;;1.30;99.90;;;;;;5068279;28;20021;-45
2023/03/08 01:04:00;;;;;;;17.27;10.70;;;1.30;99.90;;;;;;5068074;28;20024;-44
2023/03/08 01:06:26;;;;;;;19.55;10.27;;;1.30;99.90;;;;;;5068411;28;20027;-44
2023/03/08 01:08:52;;;;;;;20.67;10.20;;;1.30;99.90;;;;;;5068192;28;20478;-44
2023/03/08 01:11:23;;;;;;;18.15;10.75;;;1.30;99.90;;;;;;5067955;28;20024;-44
2023/03/08 01:13:50;;;;;;;19.35;11.02;;;1.30;99.90;;;;;;5067976;28;20025;-44
2023/03/08 01:16:22;;;;;;;18.92;11.05;;;1.30;99.90;;;;;;5049949;28;20029;-45
2023/03/08 01:18:48;;;;;;;19.80;11.60;;;1.30;99.90;;;;;;5047967;28;20055;-44
2023/03/08 01:21:14;;;;;;;23.45;11.20;;;1.30;99.90;;;;;;5048293;28;20688;-46
2023/03/08 01:23:39;;;;;;;18.83;11.15;;;1.30;99.90;;;;;;5047919;28;20033;-44
2023/03/08 01:26:11;;;;;;;21.55;11.90;;;1.30;99.90;;;;;;5047462;28;20386;-45
2023/03/08 01:28:37;;;;;;;23.23;12.70;;;1.30;99.90;;;;;;5050466;28;20092;-44
2023/03/08 01:31:09;;;;;;;24.52;12.88;;;1.30;99.90;;;;;;5051364;28;20113;-44
2023/03/08 01:33:35;;;;;;;28.20;13.50;;;1.40;99.90;;;;;;5051370;28;20029;-44
2023/03/08 01:36:05;;;;;;;22.95;12.52;;;1.40;99.90;;;;;;5051197;28;20027;-45
2023/03/08 01:38:31;;;;;;;24.25;12.32;;;1.50;99.90;;;;;;5051615;28;20033;-44
2023/03/08 01:40:58;;;;;;;20.98;12.82;;;1.40;99.90;;;;;;5051341;28;20035;-44
2023/03/08 01:43:35;;;;;;;23.42;12.52;;;1.40;99.90;;;;;;5051000;28;20458;-45
2023/03/08 01:46:09;;;;;;;23.52;12.70;;;1.30;99.90;;;;;;5051180;28;20087;-44
2023/03/08 01:48:48;;;;;;;21.42;13.48;;;1.30;99.90;;;;;;5051538;28;20382;-44
2023/03/08 01:51:19;;;;;;;20.02;12.25;;;1.30;99.90;;;;;;5051490;28;20025;-45
2023/03/08 01:53:45;;;;;;;19.10;11.70;;;1.30;99.90;;;;;;5051221;28;20510;-45
2023/03/08 01:56:14;;;;;;;26.13;12.45;;;1.30;99.90;;;;;;5050491;28;20029;-45
2023/03/08 01:58:42;;;;;;;24.83;13.38;;;1.30;99.90;;;;;;5050166;28;20124;-46
2023/03/08 02:01:09;;;;;;;22.77;12.13;;;1.30;99.90;;;;;;5050970;28;20052;-46
2023/03/08 02:03:34;;;;;;;21.80;12.95;;;1.20;99.90;;;;;;5051378;28;20040;-45
2023/03/08 02:06:01;;;;;;;22.27;12.15;;;1.30;99.90;;;;;;5051057;28;20025;-45
2023/03/08 02:08:27;;;;;;;20.58;12.05;;;1.20;99.90;;;;;;5051175;28;20331;-45
2023/03/08 02:10:53;;;;;;;19.50;12.00;;;1.20;99.90;;;;;;5049784;28;20123;-47
2023/03/08 02:13:19;;;;;;;19.23;11.20;;;1.30;99.90;;;;;;5050615;28;20027;-45
2023/03/08 02:15:45;;;;;;;25.40;12.15;;;1.30;99.90;;;;;;5050218;28;20514;-45
2023/03/08 02:18:10;;;;;;;20.20;10.50;;;1.20;99.90;;;;;;5051000;28;20036;-44
2023/03/08 02:20:39;;;;;;;18.90;11.38;;;1.20;99.90;;;;;;5051069;28;20021;-45
2023/03/08 02:23:11;;;;;;;23.75;12.23;;;1.20;99.90;;;;;;5051134;28;20445;-46
2023/03/08 02:25:37;;;;;;;19.85;12.20;;;1.30;99.90;;;;;;5050534;28;20021;-45
2023/03/08 02:28:04;;;;;;;20.20;11.25;;;1.30;99.90;;;;;;5050142;28;20066;-47
2023/03/08 02:30:33;;;;;;;18.92;11.43;;;1.30;99.90;;;;;;5050769;28;20025;-44
2023/03/08 02:32:59;;;;;;;18.27;10.80;;;1.40;99.90;;;;;;5050754;28;20115;-47
2023/03/08 02:35:25;;;;;;;19.77;11.93;;;1.30;99.90;;;;;;5050485;28;20471;-46
2023/03/08 02:37:50;;;;;;;22.20;12.07;;;1.30;99.90;;;;;;5049984;28;20036;-45
2023/03/08 02:40:16;;;;;;;18.67;11.40;;;1.30;99.90;;;;;;5050357;28;20061;-48
2023/03/08 02:42:42;;;;;;;20.38;11.68;;;1.30;99.90;;;;;;5049943;28;20512;-44
2023/03/08 02:45:08;;;;;;;19.67;11.30;;;1.30;99.90;;;;;;5050053;28;20025;-44
2023/03/08 02:47:34;;;;;;;20.60;11.35;;;1.30;99.90;;;;;;5050168;28;20175;-45
2023/03/08 02:49:59;;;;;;;16.73;11.07;;;1.40;99.90;;;;;;5050046;28;20113;-45
2023/03/08 02:52:25;;;;;;;17.92;11.07;;;1.30;99.90;;;;;;5050448;28;20029;-45
2023/03/08 02:54:52;;;;;;;21.08;10.95;;;1.40;99.90;;;;;;5049574;28;20040;-47
2023/03/08 02:57:18;;;;;;;24.90;11.20;;;1.40;99.90;;;;;;5049779;28;20100;-46
2023/03/08 02:59:43;;;;;;;19.58;10.82;;;1.30;99.90;;;;;;5049952;28;20593;-45
2023/03/08 03:02:09;;;;;;;18.45;11.10;;;1.40;99.90;;;;;;5049860;28;20453;-45
2023/03/08 03:04:34;;;;;;;17.15;10.65;;;1.40;99.90;;;;;;5049515;28;20497;-45
2023/03/08 03:07:00;;;;;;;20.15;10.68;;;1.40;99.90;;;;;;5050201;28;20378;-45
2023/03/08 03:09:26;;;;;;;15.60;9.80;;;1.40;99.90;;;;;;5049718;28;20029;-45
2023/03/08 03:11:52;;;;;;;16.08;9.30;;;1.40;99.90;;;;;;5049547;28;20025;-45
2023/03/08 03:14:17;;;;;;;14.77;9.20;;;1.40;99.90;;;;;;5048914;28;20029;-45
2023/03/08 03:16:43;;;;;;;12.95;8.55;;;1.40;99.90;;;;;;5049497;28;20028;-45
2023/03/08 03:19:09;;;;;;;14.75;9.40;;;1.40;99.90;;;;;;5049486;28;20293;-44
2023/03/08 03:21:34;;;;;;;15.40;8.38;;;1.40;99.90;;;;;;5048466;28;20021;-45
2023/03/08 03:24:00;;;;;;;18.23;8.23;;;1.40;99.90;;;;;;5049682;28;20642;-44
2023/03/08 03:26:26;;;;;;;15.25;7.97;;;1.40;99.90;;;;;;5049176;28;20021;-48
2023/03/08 03:29:01;;;;;;;11.82;7.80;;;1.40;99.90;;;;;;5047972;28;20060;-45
2023/03/08 03:31:27;;;;;;;17.20;7.38;;;1.40;99.90;;;;;;5046545;28;20108;-46
2023/03/08 03:33:53;;;;;;;16.23;7.30;;;1.40;99.90;;;;;;5049254;28;20078;-45
2023/03/08 03:36:20;;;;;;;17.00;8.95;;;1.40;99.90;;;;;;5049234;28;20390;-45
2023/03/08 03:38:46;;;;;;;9.90;7.00;;;1.40;99.90;;;;;;5049261;28;20103;-45
2023/03/08 03:41:21;;;;;;;10.18;7.63;;;1.40;99.90;;;;;;5048650;28;20025;-45
2023/03/08 03:43:47;;;;;;;12.82;8.10;;;1.40;99.90;;;;;;5049218;28;20028;-45
2023/03/08 03:46:16;;;;;;;13.02;8.32;;;1.40;99.90;;;;;;5048550;28;20090;-45
2023/03/08 03:48:42;;;;;;;15.82;8.48;;;1.30;99.90;;;;;;5047737;28;20036;-45
2023/03/08 03:51:15;;;;;;;11.45;7.88;;;1.30;99.90;;;;;;5046561;28;20322;-45
2023/03/08 03:53:40;;;;;;;14.70;8.65;;;1.30;99.90;;;;;;5049225;28;20029;-45
2023/03/08 03:56:09;;;;;;;12.48;8.10;;;1.20;99.90;;;;;;5048493;28;20078;-46
2023/03/08 03:58:35;;;;;;;17.52;8.20;;;1.30;99.90;;;;;;5048257;28;20082;-46
2023/03/08 04:01:09;;;;;;;12.45;8.45;;;1.20;99.90;;;;;;5048392;28;20032;-45
2023/03/08 04:03:35;;;;;;;11.98;8.40;;;1.20;99.90;;;;;;5048708;28;20029;-44
2023/03/08 04:06:15;;;;;;;14.95;8.95;;;1.20;99.90;;;;;;5048612;28;20021;-46
2023/03/08 04:08:41;;;;;;;14.00;9.27;;;1.20;99.90;;;;;;5048807;28;20521;-45
2023/03/08 04:11:15;;;;;;;15.02;8.65;;;1.20;99.90;;;;;;5048461;28;20029;-45
2023/03/08 04:13:41;;;;;;;13.23;8.40;;;1.20;99.90;;;;;;5048286;28;20025;-45
2023/03/08 04:16:20;;;;;;;13.63;7.32;;;1.20;99.90;;;;;;5048857;28;20467;-45
2023/03/08 04:18:46;;;;;;;11.18;7.82;;;1.20;99.90;;;;;;5048806;28;20025;-45
2023/03/08 04:21:13;;;;;;;10.88;6.35;;;1.20;99.90;;;;;;5047497;28;20410;-45
2023/03/08 04:23:39;;;;;;;13.18;7.43;;;1.20;99.90;;;;;;5048361;28;20036;-45
2023/03/08 04:26:05;;;;;;;15.23;7.80;;;1.20;99.90;;;;;;5048738;28;20013;-45
2023/03/08 04:28:32;;;;;;;14.05;7.82;;;1.20;99.90;;;;;;5048256;28;20013;-45
2023/03/08 04:30:58;;;;;;;18.13;8.73;;;1.20;99.90;;;;;;5048535;28;20027;-44
2023/03/08 04:33:24;;;;;;;14.65;8.15;;;1.20;99.90;;;;;;5046634;28;20025;-44
2023/03/08 04:35:50;;;;;;;12.35;7.15;;;1.20;99.90;;;;;;5048146;28;20449;-44
2023/03/08 04:38:16;;;;;;;11.02;7.45;;;1.20;99.90;;;;;;5047255;28;20040;-45
2023/03/08 04:41:04;;;;;;;12.73;8.93;;;1.20;99.90;;;;;;5048690;28;20036;-46
2023/03/08 04:43:31;;;;;;;12.48;7.15;;;1.10;99.90;;;;;;5047915;28;20021;-45
2023/03/08 04:45:57;;;;;;;14.15;6.95;;;1.10;99.90;;;;;;5048096;28;20096;-45
2023/03/08 04:48:22;;;;;;;18.00;8.35;;;1.10;99.90;;;;;;5048566;28;20113;-46
2023/03/08 04:50:53;;;;;;;12.27;7.78;;;1.00;99.90;;;;;;5048490;28;20048;-46
2023/03/08 04:53:18;;;;;;;14.05;7.72;;;1.00;99.90;;;;;;5047995;28;20021;-45
2023/03/08 04:55:44;;;;;;;12.75;7.95;;;1.00;99.90;;;;;;5047568;28;20029;-46
2023/03/08 04:58:09;;;;;;;19.02;9.10;;;0.90;99.90;;;;;;5047815;28;20045;-45
2023/03/08 05:00:35;;;;;;;17.02;8.35;;;0.90;99.90;;;;;;5048045;28;20116;-45
2023/03/08 05:03:00;;;;;;;13.27;8.50;;;0.90;99.90;;;;;;5051269;28;20023;-45
2023/03/08 05:05:26;;;;;;;14.85;9.20;;;0.90;99.90;;;;;;5051173;28;20429;-45
2023/03/08 05:07:52;;;;;;;15.77;9.48;;;0.80;99.90;;;;;;5051736;28;20025;-46
2023/03/08 05:10:17;;;;;;;14.45;9.13;;;0.80;99.90;;;;;;5051503;28;20023;-45
2023/03/08 05:12:43;;;;;;;19.02;9.20;;;0.80;99.90;;;;;;5051393;28;20048;-45
2023/03/08 05:15:09;;;;;;;19.20;11.43;;;0.70;99.90;;;;;;5045798;28;20248;-45
2023/03/08 05:17:35;;;;;;;15.60;8.85;;;0.70;99.90;;;;;;5051685;28;20064;-45
2023/03/08 05:20:01;;;;;;;15.52;8.82;;;0.70;99.90;;;;;;5051494;28;20021;-45
2023/03/08 05:22:27;;;;;;;15.02;8.52;;;0.70;99.90;;;;;;5047672;28;20075;-44
2023/03/08 05:24:52;;;;;;;13.77;8.32;;;0.70;99.90;;;;;;5050689;28;20294;-45
2023/03/08 05:27:18;;;;;;;15.57;9.38;;;0.70;99.90;;;;;;5051078;28;20141;-45
2023/03/08 05:29:43;;;;;;;15.43;8.52;;;0.70;99.90;;;;;;5051462;28;20076;-44
2023/03/08 05:32:12;;;;;;;15.93;9.10;;;0.70;99.90;;;;;;5051330;28;20522;-46
2023/03/08 05:34:38;;;;;;;16.15;9.43;;;0.60;99.90;;;;;;5050591;28;20032;-44
2023/03/08 05:37:03;;;;;;;17.42;9.63;;;0.60;99.90;;;;;;5051189;28;20029;-45
2023/03/08 05:39:29;;;;;;;23.65;9.77;;;0.60;99.90;;;;;;5051363;28;20028;-45
2023/03/08 05:41:55;;;;;;;17.50;9.10;;;0.60;99.90;;;;;;5051762;28;20025;-47
2023/03/08 05:44:21;;;;;;;19.42;9.85;;;0.60;99.90;;;;;;5050704;28;20474;-46
2023/03/08 05:46:49;;;;;;;19.73;9.88;;;0.60;99.90;;;;;;5051085;28;20029;-44
2023/03/08 05:49:15;;;;;;;18.55;10.55;;;0.70;99.90;;;;;;5051370;28;20025;-45
2023/03/08 05:51:40;;;;;;;20.13;10.05;;;0.60;99.90;;;;;;5051134;28;20032;-44
2023/03/08 05:54:06;;;;;;;19.13;9.82;;;0.60;99.90;;;;;;5051337;28;20421;-46
2023/03/08 05:56:31;;;;;;;19.23;11.60;;;0.60;99.90;;;;;;5051037;28;20177;-45
2023/03/08 05:58:57;;;;;;;25.42;11.75;;;0.60;99.90;;;;;;5051408;28;20498;-44
2023/03/08 06:01:24;;;;;;;21.15;11.40;;;0.60;99.90;;;;;;5050609;28;20075;-45
2023/03/08 06:03:52;;;;;;;19.23;10.35;;;0.60;99.90;;;;;;5051146;28;20096;-44
2023/03/08 06:06:19;;;;;;;20.30;10.23;;;0.60;99.90;;;;;;5045643;28;20040;-45
2023/03/08 06:08:45;;;;;;;20.75;10.05;;;0.60;99.90;;;;;;5048679;28;20009;-47
2023/03/08 06:11:11;;;;;;;22.73;12.10;;;0.70;99.90;;;;;;5050758;28;20558;-45
2023/03/08 06:13:37;;;;;;;21.92;11.07;;;0.70;99.90;;;;;;5056928;28;20028;-45
2023/03/08 06:16:04;;;;;;;19.35;10.90;;;0.70;99.90;;;;;;5059876;28;20060;-45
2023/03/08 06:18:29;;;;;;;23.58;11.15;;;0.80;99.90;;;;;;5049899;28;20146;-45
2023/03/08 06:21:04;;;;;;;23.23;11.60;;;0.80;99.90;;;;;;5049294;28;20550;-45
2023/03/08 06:23:31;;;;;;;18.20;10.65;;;0.80;99.90;;;;;;5050659;28;20512;-45
2023/03/08 06:25:57;;;;;;;20.30;11.10;;;0.80;99.90;;;;;;5050482;28;20374;-46
2023/03/08 06:28:24;;;;;;;20.10;10.35;;;0.80;99.90;;;;;;5049599;28;20013;-44
2023/03/08 06:30:50;;;;;;;22.33;10.95;;;0.80;99.90;;;;;;5050866;28;20441;-45
2023/03/08 06:33:16;;;;;;;20.58;10.75;;;0.90;99.90;;;;;;5050909;28;20078;-44
2023/03/08 06:35:42;;;;;;;16.85;10.18;;;0.90;99.90;;;;;;5047745;28;20025;-45
2023/03/08 06:38:08;;;;;;;21.02;12.15;;;1.00;99.90;;;;;;5049163;28;20229;-44
2023/03/08 06:40:33;;;;;;;21.27;10.85;;;1.00;99.90;;;;;;5049649;28;20033;-45
2023/03/08 06:43:00;;;;;;;23.65;11.30;;;1.00;99.90;;;;;;5041569;28;20427;-46
2023/03/08 06:45:25;;;;;;;22.13;10.90;;;1.00;99.90;;;;;;5048637;28;20033;-45
2023/03/08 06:47:51;;;;;;;22.70;11.38;;;1.00;99.90;;;;;;5047834;28;20422;-45
2023/03/08 06:50:17;;;;;;;21.67;10.85;;;1.10;99.90;;;;;;5046615;28;20049;-45
2023/03/08 06:52:42;;;;;;;23.60;11.25;;;1.10;99.90;;;;;;5050329;28;20441;-44
2023/03/08 06:55:09;;;;;;;21.75;11.75;;;1.20;99.90;;;;;;5050022;28;20163;-48
2023/03/08 06:57:34;;;;;;;19.83;9.68;;;1.20;99.90;;;;;;5049801;28;20482;-45
2023/03/08 07:00:00;;;;;;;20.88;10.88;;;1.20;99.90;;;;;;5050288;28;20047;-45
2023/03/08 07:02:26;;;;;;;19.00;10.55;;;1.30;99.90;;;;;;5049984;28;20013;-44
2023/03/08 07:04:51;;;;;;;18.20;10.75;;;1.30;99.90;;;;;;5049756;28;20032;-45
2023/03/08 07:07:17;;;;;;;20.70;11.38;;;1.30;99.90;;;;;;5046098;28;20029;-46
2023/03/08 07:09:42;;;;;;;17.50;9.80;;;1.20;99.90;;;;;;5047609;28;20312;-46
2023/03/08 07:12:08;;;;;;;19.60;10.23;;;1.30;99.90;;;;;;5047430;28;20032;-46
2023/03/08 07:14:33;;;;;;;21.17;11.05;;;1.20;99.90;;;;;;5046802;28;20060;-47
2023/03/08 07:16:59;;;;;;;19.33;10.23;;;1.30;99.90;;;;;;5050020;28;20025;-45
2023/03/08 07:19:25;;;;;;;18.70;10.40;;;1.30;99.90;;;;;;5048206;28;20044;-47
2023/03/08 07:21:50;;;;;;;24.13;11.15;;;1.30;99.90;;;;;;5048249;28;20079;-47
2023/03/08 07:24:16;;;;;;;26.48;10.65;;;1.30;99.90;;;;;;5049157;28;20482;-44
2023/03/08 07:26:41;;;;;;;19.02;10.25;;;1.30;99.90;;;;;;5049628;28;20017;-45
2023/03/08 07:29:07;;;;;;;19.77;10.60;;;1.40;99.90;;;;;;5048892;28;20025;-44
2023/03/08 07:31:35;;;;;;;17.48;9.77;;;1.20;99.90;;;;;;5049246;28;20021;-45
2023/03/08 07:34:01;;;;;;;29.33;11.23;;;1.30;99.90;;;;;;5049178;28;20132;-45
2023/03/08 07:36:27;;;;;;;16.60;9.88;;;1.40;99.90;;;;;;5049204;28;20017;-45
2023/03/08 07:38:52;;;;;;;20.52;10.25;;;1.50;99.90;;;;;;5048211;28;20074;-45
2023/03/08 07:41:18;;;;;;;21.15;10.80;;;1.60;99.90;;;;;;5048742;28;20036;-45
2023/03/08 07:43:43;;;;;;;20.88;10.07;;;1.70;99.90;;;;;;5048906;28;20033;-47
2023/03/08 07:46:09;;;;;;;19.75;10.77;;;1.70;99.90;;;;;;5049167;28;20402;-45
2023/03/08 07:48:34;;;;;;;20.80;11.32;;;1.80;99.90;;;;;;5045708;28;20131;-45
2023/03/08 07:51:09;;;;;;;15.77;9.00;;;1.80;99.90;;;;;;5049145;28;20044;-45
2023/03/08 07:53:35;;;;;;;18.95;8.80;;;1.90;99.90;;;;;;5048857;28;20021;-45
2023/03/08 07:56:02;;;;;;;16.05;9.63;;;2.00;99.90;;;;;;5048831;28;20166;-45
2023/03/08 07:58:28;;;;;;;20.85;10.00;;;2.00;99.90;;;;;;5053592;28;20017;-44
2023/03/08 08:00:53;;;;;;;18.40;9.93;;;2.20;99.90;;;;;;5068743;28;20081;-45
2023/03/08 08:03:19;;;;;;;19.05;9.68;;;2.30;99.90;;;;;;5067550;28;20020;-48
2023/03/08 08:05:45;;;;;;;15.82;8.93;;;2.40;99.90;;;;;;5063483;28;20025;-45
2023/03/08 08:08:12;;;;;;;17.02;10.27;;;2.50;99.90;;;;;;5048912;28;20029;-46
2023/03/08 08:10:39;;;;;;;18.08;10.50;;;2.70;99.90;;;;;;5047749;28;20087;-45
2023/03/08 08:13:04;;;;;;;18.80;10.75;;;2.80;99.90;;;;;;5048495;28;20060;-46
2023/03/08 08:15:30;;;;;;;21.35;11.48;;;2.60;99.90;;;;;;5048776;28;20071;-45
2023/03/08 08:17:56;;;;;;;18.08;9.82;;;2.80;99.90;;;;;;5047941;28;20132;-45
2023/03/08 08:20:21;;;;;;;20.25;11.82;;;2.90;99.90;;;;;;5047619;28;20079;-45
2023/03/08 08:22:50;;;;;;;20.33;11.65;;;3.00;99.90;;;;;;5049194;28;20052;-46
2023/03/08 08:25:16;;;;;;;21.88;11.95;;;2.90;99.90;;;;;;5048705;28;20510;-45
2023/03/08 08:27:41;;;;;;;19.65;11.25;;;3.00;99.90;;;;;;5059905;28;20056;-45
2023/03/08 08:30:08;;;;;;;20.13;12.50;;;3.10;99.90;;;;;;5068971;28;20032;-45
2023/03/08 08:32:34;;;;;;;20.15;11.98;;;3.10;99.90;;;;;;5069452;28;20032;-45
2023/03/08 08:34:59;;;;;;;23.38;13.23;;;2.90;99.90;;;;;;5068676;28;20025;-45
2023/03/08 08:37:25;;;;;;;21.15;12.20;;;2.80;99.90;;;;;;5072016;28;20103;-46
2023/03/08 08:39:50;;;;;;;19.98;11.82;;;2.90;99.90;;;;;;5072770;28;20036;-45
2023/03/08 08:42:16;;;;;;;16.65;11.90;;;3.10;99.90;;;;;;5052744;28;20064;-45
2023/03/08 08:44:41;;;;;;;21.55;12.23;;;3.30;99.90;;;;;;5052232;28;20162;-45
2023/03/08 08:47:07;;;;;;;22.60;12.27;;;3.30;99.90;;;;;;5052479;28;20029;-45
2023/03/08 08:49:33;;;;;;;22.80;12.75;;;3.40;99.90;;;;;;5052555;28;20037;-45
2023/03/08 08:51:58;;;;;;;20.92;12.65;;;3.60;99.90;;;;;;5050935;28;20390;-45
2023/03/08 08:54:24;;;;;;;21.60;12.02;;;3.40;99.90;;;;;;5051757;28;20032;-47
2023/03/08 08:56:49;;;;;;;21.95;11.77;;;3.40;99.90;;;;;;5052333;28;20029;-45
2023/03/08 08:59:15;;;;;;;21.33;12.00;;;3.60;99.90;;;;;;5051930;28;20530;-46
2023/03/08 09:01:42;;;;;;;18.73;11.63;;;3.70;99.90;;;;;;5055228;28;20088;-45
2023/03/08 09:04:12;;;;;;;22.08;11.93;;;3.90;99.90;;;;;;5057668;28;20096;-47
2023/03/08 09:06:39;;;;;;;19.40;10.23;;;4.10;99.90;;;;;;5052586;28;20013;-47
2023/03/08 09:09:05;;;;;;;17.20;10.10;;;4.20;99.90;;;;;;5052224;28;20025;-45
2023/03/08 09:11:31;;;;;;;15.13;9.63;;;4.20;99.90;;;;;;5051985;28;20047;-45
2023/03/08 09:13:57;;;;;;;13.85;7.93;;;4.10;99.90;;;;;;5051928;28;20474;-45
2023/03/08 09:16:25;;;;;;;13.98;8.02;;;4.10;99.90;;;;;;5051719;28;20040;-45
2023/03/08 09:18:51;;;;;;;9.32;6.10;;;4.20;99.90;;;;;;5052197;28;20032;-45
2023/03/08 09:21:18;;;;;;;9.43;6.93;;;4.00;99.90;;;;;;5050471;28;20580;-45
2023/03/08 09:23:44;;;;;;;11.18;7.00;;;4.00;99.90;;;;;;5051812;28;20493;-44
2023/03/08 09:26:10;;;;;;;13.20;6.47;;;4.00;99.90;;;;;;5050359;28;20025;-45
2023/03/08 09:28:36;;;;;;;12.57;7.07;;;3.90;99.90;;;;;;5051663;28;20086;-45
2023/03/08 09:31:11;;;;;;;13.52;8.38;;;4.00;99.90;;;;;;5049354;28;20425;-45
2023/03/08 09:33:39;;;;;;;12.75;7.43;;;3.80;99.90;;;;;;5051071;28;20029;-45
2023/03/08 09:36:04;;;;;;;14.70;7.97;;;3.80;99.90;;;;;;5050701;28;20032;-45
2023/03/08 09:38:30;;;;;;;15.40;7.30;;;3.70;99.90;;;;;;5051444;28;20029;-46
2023/03/08 09:41:22;;;;;;;11.93;7.25;;;3.70;99.90;;;;;;5051359;28;20021;-45
2023/03/08 09:44:03;;;;;;;16.08;7.63;;;3.60;99.90;;;;;;5044349;28;20013;-45
2023/03/08 09:46:34;;;;;;;14.85;7.78;;;3.70;99.90;;;;;;5049720;28;20029;-46
2023/03/08 09:49:03;;;;;;;14.60;8.32;;;3.80;99.90;;;;;;5049633;28;20013;-45
2023/03/08 09:51:35;;;;;;;14.85;8.48;;;4.00;99.90;;;;;;5052608;28;20078;-45
2023/03/08 09:54:06;;;;;;;17.90;10.07;;;4.00;99.90;;;;;;5055827;28;20036;-45
2023/03/08 09:56:44;;;;;;;16.23;9.88;;;3.90;99.90;;;;;;5055367;28;20028;-48
2023/03/08 09:59:39;;;;;;;16.63;10.23;;;3.90;99.90;;;;;;5052502;28;20025;-45
2023/03/08 10:02:11;;;;;;;14.52;9.52;;;3.70;99.90;;;;;;5055158;28;20029;-45
2023/03/08 10:04:51;;;;;;;18.63;9.48;;;3.90;99.90;;;;;;5059339;28;20017;-44
2023/03/08 10:07:29;;;;;;;;;;;3.80;99.90;;;;;;5061765;28;20028;-47
2023/03/08 10:10:22;;;;;;;19.75;8.88;;;3.60;99.90;;;;;;5053833;28;20262;-47
2023/03/08 10:12:56;;;;;;;12.20;8.15;;;3.60;99.90;;;;;;5056829;28;20032;-45
2023/03/08 10:15:24;;;;;;;17.35;9.48;;;3.80;99.90;;;;;;5053605;28;20024;-46
2023/03/08 10:17:58;;;;;;;19.55;9.90;;;3.80;99.90;;;;;;5054518;28;20090;-47
2023/03/08 10:20:28;;;;;;;15.75;9.90;;;3.70;99.90;;;;;;5059387;28;20110;-46
2023/03/08 10:23:15;;;;;;;21.10;10.60;;;3.80;99.90;;;;;;5057844;28;20044;-46
2023/03/08 10:25:41;;;;;;;15.55;8.98;;;3.70;99.90;;;;;;5053761;28;20559;-45
2023/03/08 10:28:18;;;;;;;18.98;9.73;;;4.00;99.90;;;;;;5069105;28;20103;-46
2023/03/08 10:30:53;;;;;;;14.95;8.85;;;4.20;99.90;;;;;;5059047;28;20458;-47
2023/03/08 10:33:23;;;;;;;15.20;8.80;;;4.40;99.90;;;;;;5060957;28;20090;-45
2023/03/08 10:36:00;;;;;;;12.98;8.43;;;4.30;99.90;;;;;;5050539;28;20074;-45
2023/03/08 10:38:29;;;;;;;16.20;9.93;;;4.20;99.90;;;;;;5058524;28;20104;-45
2023/03/08 10:41:15;;;;;;;14.63;9.27;;;4.20;99.90;;;;;;5057833;28;20020;-45
2023/03/08 10:43:52;;;;;;;14.75;9.60;;;4.30;99.90;;;;;;5064840;28;20073;-45
2023/03/08 10:46:21;;;;;;;18.02;10.27;;;4.30;99.90;;;;;;5057056;28;20047;-45
2023/03/08 10:48:47;;;;;;;17.45;9.82;;;4.30;99.90;;;;;;5058999;28;20040;-44
2023/03/08 10:51:21;;;;;;;14.60;8.90;;;4.20;99.90;;;;;;5065197;28;20385;-45
2023/03/08 10:54:01;;;;;;;13.80;8.18;;;4.20;99.90;;;;;;5053448;28;20085;-45
2023/03/08 10:56:45;;;;;;;;;;;4.40;99.90;;;;;;5061560;28;20083;-44
2023/03/08 10:59:28;;;;;;;16.23;8.23;;;4.50;99.90;;;;;;5064475;28;20412;-45
2023/03/08 11:01:57;;;;;;;17.52;8.90;;;4.60;99.90;;;;;;5050953;28;20024;-45
2023/03/08 11:04:25;;;;;;;14.65;8.55;;;4.60;99.90;;;;;;5060014;28;20013;-45
2023/03/08 11:06:50;;;;;;;13.70;8.73;;;4.60;99.90;;;;;;5051809;28;20418;-45
2023/03/08 11:09:29;;;;;;;13.32;8.50;;;4.70;99.90;;;;;;5042770;28;20013;-45
2023/03/08 11:11:56;;;;;;;13.20;8.38;;;4.70;99.90;;;;;;5042074;28;20029;-45
2023/03/08 11:14:23;;;;;;;16.40;9.13;;;4.60;99.90;;;;;;5054795;28;20251;-45
2023/03/08 11:16:52;;;;;;;15.38;8.73;;;4.70;99.90;;;;;;5057239;28;20538;-46
2023/03/08 11:19:34;;;;;;;19.25;10.00;;;4.60;99.90;;;;;;5048603;28;20040;-46
2023/03/08 11:22:23;;;;;;;22.17;10.85;;;4.80;99.90;;;;;;5062980;28;20055;-45
2023/03/08 11:25:12;;;;;;;16.17;10.00;;;4.80;99.90;;;;;;5047581;28;20466;-45
2023/03/08 11:28:02;;;;;;;16.05;10.00;;;4.90;99.90;;;;;;5065346;28;21046;-45
2023/03/08 11:30:48;;;;;;;15.07;9.80;;;4.80;99.90;;;;;;5047559;28;20510;-45
2023/03/08 11:33:32;;;;;;;17.75;10.05;;;4.90;99.90;;;;;;5047299;28;20024;-45
2023/03/08 11:36:21;;;;;;;17.85;10.35;;;5.00;99.90;;;;;;5048845;28;20031;-45
2023/03/08 11:38:59;;;;;;;18.98;9.82;;;4.90;99.90;;;;;;5049135;28;20041;-47
2023/03/08 11:41:49;;;;;;;18.00;11.35;;;4.80;99.90;;;;;;5046720;28;20078;-45
2023/03/08 11:44:43;;;;;;;20.80;10.43;;;4.90;99.90;;;;;;5046715;28;20025;-45
2023/03/08 11:47:39;;;;;;;18.10;9.88;;;5.00;99.90;;;;;;5028761;28;20124;-45
2023/03/08 11:50:19;;;;;;;18.13;10.88;;;5.00;99.90;;;;;;5029512;28;20104;-46
2023/03/08 11:53:09;;;;;;;17.75;11.00;;;5.00;99.90;;;;;;5048724;28;20110;-45
2023/03/08 11:55:44;;;;;;;16.05;10.23;;;5.10;99.90;;;;;;5048915;28;20402;-45
2023/03/08 11:58:17;;;;;;;15.52;9.43;;;5.20;99.90;;;;;;5048773;28;20025;-45
2023/03/08 12:00:47;;;;;;;16.02;10.85;;;5.10;99.90;;;;;;5047546;28;20036;-47
2023/03/08 12:03:16;;;;;;;21.63;10.30;;;5.10;99.90;;;;;;5047656;28;20017;-45
2023/03/08 12:05:56;;;;;;;17.13;10.35;;;5.10;99.90;;;;;;5048259;28;20056;-47
2023/03/08 12:08:27;;;;;;;13.60;8.93;;;4.90;99.90;;;;;;5055547;28;20017;-45
2023/03/08 12:10:55;;;;;;;13.35;8.10;;;4.90;99.90;;;;;;5047544;28;20029;-48
2023/03/08 12:13:30;;;;;;;14.00;8.55;;;5.00;99.90;;;;;;5048162;28;20068;-47
2023/03/08 12:16:02;;;;;;;12.15;6.43;;;4.90;99.90;;;;;;5047919;28;20037;-46
2023/03/08 12:18:41;;;;;;;10.55;6.38;;;4.90;99.90;;;;;;5047130;28;20576;-45
2023/03/08 12:21:12;;;;;;;6.57;2.88;;;4.80;99.90;;;;;;5048078;28;20098;-47
2023/03/08 12:24:16;;;;;;;2.88;1.70;;;4.20;99.90;;;;;;5046887;28;20107;-45
2023/03/08 12:26:55;;;;;;;5.72;2.08;;;4.20;99.90;;;;;;5030669;28;20037;-45
2023/03/08 12:29:27;;;;;;;6.53;3.00;;;3.80;99.90;;;;;;5048091;28;20051;-45
2023/03/08 12:31:53;;;;;;;8.20;4.45;;;3.70;99.90;;;;;;5048430;28;20017;-45
2023/03/08 12:34:35;;;;;;;7.28;4.93;;;3.70;99.90;;;;;;5048557;28;20075;-46
2023/03/08 12:37:01;;;;;;;9.73;5.60;;;3.60;99.90;;;;;;5050166;28;20095;-45
2023/03/08 12:39:36;;;;;;;15.98;6.65;;;3.60;99.90;;;;;;5048577;28;20116;-46
2023/03/08 12:42:14;;;;;;;14.57;6.47;;;3.70;99.90;;;;;;5048667;28;20017;-45
2023/03/08 12:44:40;;;;;;;7.88;5.38;;;3.30;99.90;;;;;;5047293;28;20023;-48
2023/03/08 12:47:12;;;;;;;11.25;6.07;;;3.50;99.90;;;;;;5047064;28;20083;-45
2023/03/08 12:49:41;;;;;;;12.57;6.60;;;3.40;99.90;;;;;;5048615;28;20032;-46
2023/03/08 12:52:19;;;;;;;9.75;6.15;;;2.80;99.90;;;;;;5048473;28;20013;-45